sensor_id;sensor_type;location;lat;lon;timestamp;P1;durP1;ratioP1;P2;durP2;ratioP2
5900;SDS011;2976;49.764;9.796;2023-02-12T00:00:03;35.07;;;18.50;;
5900;SDS011;2976;49.764;9.796;2023-02-12T00:02:31;38.40;;;18.77;;
5900;SDS011;2976;49.764;9.796;2023-02-12T00:04:58;37.13;;;20.40;;
5900;SDS011;2976;49.764;9.796;2023-02-12T00:07:23;40.77;;;20.17;;
5900;SDS011;2976;49.764;9.796;2023-02-12T00:09:49;46.60;;;20.37;;
5900;SDS011;2976;49.764;9.796;2023-02-12T00:12:15;38.20;;;19.70;;
5900;SDS011;2976;49.764;9.796;2023-02-12T00:14:40;43.00;;;18.77;;
5900;SDS011;2976;49.764;9.796;2023-02-12T00:17:06;41.90;;;20.90;;
5900;SDS011;2976;49.764;9.796;2023-02-12T00:19:31;42.73;;;19.83;;
5900;SDS011;2976;49.764;9.796;2023-02-12T00:21:57;36.80;;;18.33;;
5900;SDS011;2976;49.764;9.796;2023-02-12T00:24:23;42.10;;;20.37;;
5900;SDS011;2976;49.764;9.796;2023-02-12T00:26:49;31.57;;;16.53;;
5900;SDS011;2976;49.764;9.796;2023-02-12T00:29:15;42.73;;;20.73;;
5900;SDS011;2976;49.764;9.796;2023-02-12T00:31:41;43.47;;;22.30;;
5900;SDS011;2976;49.764;9.796;2023-02-12T00:34:06;41.23;;;20.50;;
5900;SDS011;2976;49.764;9.796;2023-02-12T00:36:33;44.63;;;22.83;;
5900;SDS011;2976;49.764;9.796;2023-02-12T00:38:59;43.23;;;21.80;;
5900;SDS011;2976;49.764;9.796;2023-02-12T00:41:25;38.40;;;21.73;;
5900;SDS011;2976;49.764;9.796;2023-02-12T00:43:51;43.40;;;21.57;;
5900;SDS011;2976;49.764;9.796;2023-02-12T00:46:17;38.67;;;21.60;;
5900;SDS011;2976;49.764;9.796;2023-02-12T00:48:43;40.27;;;21.03;;
5900;SDS011;2976;49.764;9.796;2023-02-12T00:51:08;39.60;;;20.60;;
5900;SDS011;2976;49.764;9.796;2023-02-12T00:53:34;36.93;;;20.47;;
5900;SDS011;2976;49.764;9.796;2023-02-12T00:56:00;40.67;;;21.07;;
5900;SDS011;2976;49.764;9.796;2023-02-12T00:58:26;36.73;;;18.83;;
5900;SDS011;2976;49.764;9.796;2023-02-12T01:00:52;37.63;;;19.20;;
5900;SDS011;2976;49.764;9.796;2023-02-12T01:03:19;40.43;;;19.17;;
5900;SDS011;2976;49.764;9.796;2023-02-12T01:05:45;33.60;;;17.43;;
5900;SDS011;2976;49.764;9.796;2023-02-12T01:08:11;37.90;;;18.80;;
5900;SDS011;2976;49.764;9.796;2023-02-12T01:10:38;37.37;;;19.03;;
5900;SDS011;2976;49.764;9.796;2023-02-12T01:13:04;38.93;;;18.67;;
5900;SDS011;2976;49.764;9.796;2023-02-12T01:15:29;40.27;;;19.53;;
5900;SDS011;2976;49.764;9.796;2023-02-12T01:17:55;39.37;;;18.13;;
5900;SDS011;2976;49.764;9.796;2023-02-12T01:20:21;33.93;;;18.87;;
5900;SDS011;2976;49.764;9.796;2023-02-12T01:22:48;47.00;;;19.70;;
5900;SDS011;2976;49.764;9.796;2023-02-12T01:25:14;42.83;;;20.27;;
5900;SDS011;2976;49.764;9.796;2023-02-12T01:27:40;41.87;;;21.10;;
5900;SDS011;2976;49.764;9.796;2023-02-12T01:30:06;42.47;;;19.97;;
5900;SDS011;2976;49.764;9.796;2023-02-12T01:32:35;49.10;;;22.00;;
5900;SDS011;2976;49.764;9.796;2023-02-12T01:35:00;39.60;;;20.00;;
5900;SDS011;2976;49.764;9.796;2023-02-12T01:37:27;44.90;;;19.60;;
5900;SDS011;2976;49.764;9.796;2023-02-12T01:39:52;42.13;;;20.47;;
5900;SDS011;2976;49.764;9.796;2023-02-12T01:42:18;48.83;;;22.57;;
5900;SDS011;2976;49.764;9.796;2023-02-12T01:44:44;39.80;;;20.53;;
5900;SDS011;2976;49.764;9.796;2023-02-12T01:47:30;34.27;;;19.57;;
5900;SDS011;2976;49.764;9.796;2023-02-12T01:49:56;41.83;;;19.57;;
5900;SDS011;2976;49.764;9.796;2023-02-12T01:52:29;36.00;;;19.60;;
5900;SDS011;2976;49.764;9.796;2023-02-12T01:54:58;39.73;;;19.67;;
5900;SDS011;2976;49.764;9.796;2023-02-12T01:57:27;50.10;;;21.90;;
5900;SDS011;2976;49.764;9.796;2023-02-12T01:59:56;38.80;;;20.10;;
5900;SDS011;2976;49.764;9.796;2023-02-12T02:02:24;41.67;;;20.77;;
5900;SDS011;2976;49.764;9.796;2023-02-12T02:04:51;40.73;;;21.67;;
5900;SDS011;2976;49.764;9.796;2023-02-12T02:07:21;48.63;;;21.77;;
5900;SDS011;2976;49.764;9.796;2023-02-12T02:09:47;41.73;;;21.07;;
5900;SDS011;2976;49.764;9.796;2023-02-12T02:12:12;46.97;;;23.17;;
5900;SDS011;2976;49.764;9.796;2023-02-12T02:14:57;47.40;;;22.90;;
5900;SDS011;2976;49.764;9.796;2023-02-12T02:42:00;45.13;;;21.77;;
5900;SDS011;2976;49.764;9.796;2023-02-12T02:44:31;41.27;;;20.10;;
5900;SDS011;2976;49.764;9.796;2023-02-12T02:47:02;40.67;;;20.57;;
5900;SDS011;2976;49.764;9.796;2023-02-12T02:49:34;43.33;;;22.07;;
5900;SDS011;2976;49.764;9.796;2023-02-12T02:52:07;47.50;;;21.80;;
5900;SDS011;2976;49.764;9.796;2023-02-12T02:54:38;39.77;;;20.17;;
5900;SDS011;2976;49.764;9.796;2023-02-12T03:00:05;54.90;;;23.27;;
5900;SDS011;2976;49.764;9.796;2023-02-12T03:02:39;44.70;;;21.73;;
5900;SDS011;2976;49.764;9.796;2023-02-12T03:05:11;47.30;;;22.97;;
5900;SDS011;2976;49.764;9.796;2023-02-12T03:08:02;51.30;;;23.23;;
5900;SDS011;2976;49.764;9.796;2023-02-12T03:10:40;46.77;;;22.90;;
5900;SDS011;2976;49.764;9.796;2023-02-12T03:13:11;47.37;;;22.60;;
5900;SDS011;2976;49.764;9.796;2023-02-12T03:15:46;41.37;;;21.33;;
5900;SDS011;2976;49.764;9.796;2023-02-12T03:18:20;39.67;;;21.03;;
5900;SDS011;2976;49.764;9.796;2023-02-12T03:20:50;48.60;;;22.03;;
5900;SDS011;2976;49.764;9.796;2023-02-12T03:23:22;40.23;;;20.70;;
5900;SDS011;2976;49.764;9.796;2023-02-12T03:25:56;42.70;;;20.30;;
5900;SDS011;2976;49.764;9.796;2023-02-12T03:28:33;48.60;;;23.40;;
5900;SDS011;2976;49.764;9.796;2023-02-12T03:36:38;52.33;;;24.63;;
5900;SDS011;2976;49.764;9.796;2023-02-12T03:42:04;57.90;;;23.63;;
5900;SDS011;2976;49.764;9.796;2023-02-12T03:47:28;46.70;;;20.70;;
5900;SDS011;2976;49.764;9.796;2023-02-12T03:50:10;47.07;;;21.90;;
5900;SDS011;2976;49.764;9.796;2023-02-12T03:52:38;41.40;;;20.93;;
5900;SDS011;2976;49.764;9.796;2023-02-12T03:55:04;53.93;;;22.27;;
5900;SDS011;2976;49.764;9.796;2023-02-12T03:57:32;51.53;;;23.97;;
5900;SDS011;2976;49.764;9.796;2023-02-12T04:00:06;52.20;;;22.17;;
5900;SDS011;2976;49.764;9.796;2023-02-12T04:02:34;46.27;;;20.53;;
5900;SDS011;2976;49.764;9.796;2023-02-12T04:05:04;43.77;;;21.13;;
5900;SDS011;2976;49.764;9.796;2023-02-12T04:07:30;51.97;;;24.53;;
5900;SDS011;2976;49.764;9.796;2023-02-12T04:09:57;55.87;;;23.47;;
5900;SDS011;2976;49.764;9.796;2023-02-12T04:13:06;52.60;;;23.50;;
5900;SDS011;2976;49.764;9.796;2023-02-12T04:15:34;47.23;;;22.97;;
5900;SDS011;2976;49.764;9.796;2023-02-12T04:18:43;47.07;;;21.00;;
5900;SDS011;2976;49.764;9.796;2023-02-12T04:24:01;49.80;;;21.53;;
5900;SDS011;2976;49.764;9.796;2023-02-12T04:32:10;43.23;;;21.23;;
5900;SDS011;2976;49.764;9.796;2023-02-12T04:37:22;48.67;;;22.33;;
5900;SDS011;2976;49.764;9.796;2023-02-12T04:39:54;53.30;;;24.17;;
5900;SDS011;2976;49.764;9.796;2023-02-12T04:42:22;52.27;;;21.73;;
5900;SDS011;2976;49.764;9.796;2023-02-12T04:44:47;50.97;;;25.90;;
5900;SDS011;2976;49.764;9.796;2023-02-12T04:47:13;58.67;;;25.33;;
5900;SDS011;2976;49.764;9.796;2023-02-12T04:49:40;58.37;;;25.40;;
5900;SDS011;2976;49.764;9.796;2023-02-12T04:52:06;47.30;;;23.13;;
5900;SDS011;2976;49.764;9.796;2023-02-12T04:54:32;57.23;;;24.53;;
5900;SDS011;2976;49.764;9.796;2023-02-12T04:56:58;52.43;;;22.37;;
5900;SDS011;2976;49.764;9.796;2023-02-12T04:59:24;51.27;;;24.50;;
5900;SDS011;2976;49.764;9.796;2023-02-12T05:01:49;59.90;;;25.30;;
5900;SDS011;2976;49.764;9.796;2023-02-12T05:04:15;57.50;;;26.00;;
5900;SDS011;2976;49.764;9.796;2023-02-12T05:06:42;55.63;;;24.93;;
5900;SDS011;2976;49.764;9.796;2023-02-12T05:09:09;56.93;;;24.47;;
5900;SDS011;2976;49.764;9.796;2023-02-12T05:11:38;51.67;;;24.97;;
5900;SDS011;2976;49.764;9.796;2023-02-12T05:14:04;62.53;;;27.00;;
5900;SDS011;2976;49.764;9.796;2023-02-12T05:16:29;61.83;;;26.27;;
5900;SDS011;2976;49.764;9.796;2023-02-12T05:18:55;60.90;;;25.47;;
5900;SDS011;2976;49.764;9.796;2023-02-12T05:21:21;60.13;;;25.20;;
5900;SDS011;2976;49.764;9.796;2023-02-12T05:23:46;61.67;;;24.73;;
5900;SDS011;2976;49.764;9.796;2023-02-12T05:26:13;59.57;;;24.70;;
5900;SDS011;2976;49.764;9.796;2023-02-12T05:28:40;59.70;;;24.97;;
5900;SDS011;2976;49.764;9.796;2023-02-12T05:31:07;61.87;;;23.60;;
5900;SDS011;2976;49.764;9.796;2023-02-12T05:33:36;57.47;;;23.07;;
5900;SDS011;2976;49.764;9.796;2023-02-12T05:36:06;63.67;;;25.60;;
5900;SDS011;2976;49.764;9.796;2023-02-12T05:38:33;60.13;;;26.80;;
5900;SDS011;2976;49.764;9.796;2023-02-12T05:41:00;66.30;;;25.63;;
5900;SDS011;2976;49.764;9.796;2023-02-12T05:43:30;72.13;;;28.17;;
5900;SDS011;2976;49.764;9.796;2023-02-12T05:45:59;70.90;;;27.90;;
5900;SDS011;2976;49.764;9.796;2023-02-12T05:48:29;80.23;;;28.57;;
5900;SDS011;2976;49.764;9.796;2023-02-12T05:51:05;83.60;;;29.47;;
5900;SDS011;2976;49.764;9.796;2023-02-12T05:53:31;61.20;;;25.17;;
5900;SDS011;2976;49.764;9.796;2023-02-12T05:56:07;66.53;;;27.37;;
5900;SDS011;2976;49.764;9.796;2023-02-12T05:58:34;73.37;;;27.67;;
5900;SDS011;2976;49.764;9.796;2023-02-12T06:01:00;69.67;;;27.90;;
5900;SDS011;2976;49.764;9.796;2023-02-12T06:03:26;72.50;;;27.33;;
5900;SDS011;2976;49.764;9.796;2023-02-12T06:05:51;69.87;;;30.00;;
5900;SDS011;2976;49.764;9.796;2023-02-12T06:08:17;79.27;;;30.20;;
5900;SDS011;2976;49.764;9.796;2023-02-12T06:10:43;72.87;;;29.07;;
5900;SDS011;2976;49.764;9.796;2023-02-12T06:13:08;79.47;;;29.07;;
5900;SDS011;2976;49.764;9.796;2023-02-12T06:15:37;82.83;;;31.07;;
5900;SDS011;2976;49.764;9.796;2023-02-12T06:18:03;67.50;;;30.27;;
5900;SDS011;2976;49.764;9.796;2023-02-12T06:20:28;69.67;;;29.53;;
5900;SDS011;2976;49.764;9.796;2023-02-12T06:22:54;86.00;;;30.40;;
5900;SDS011;2976;49.764;9.796;2023-02-12T06:25:19;87.80;;;30.97;;
5900;SDS011;2976;49.764;9.796;2023-02-12T06:27:45;66.67;;;26.80;;
5900;SDS011;2976;49.764;9.796;2023-02-12T06:30:11;69.33;;;27.47;;
5900;SDS011;2976;49.764;9.796;2023-02-12T06:32:37;72.70;;;29.10;;
5900;SDS011;2976;49.764;9.796;2023-02-12T06:35:02;61.90;;;29.00;;
5900;SDS011;2976;49.764;9.796;2023-02-12T06:37:28;62.40;;;26.83;;
5900;SDS011;2976;49.764;9.796;2023-02-12T06:39:54;64.47;;;27.13;;
5900;SDS011;2976;49.764;9.796;2023-02-12T06:42:19;66.83;;;27.37;;
5900;SDS011;2976;49.764;9.796;2023-02-12T06:44:45;76.67;;;28.60;;
5900;SDS011;2976;49.764;9.796;2023-02-12T06:47:11;64.23;;;27.37;;
5900;SDS011;2976;49.764;9.796;2023-02-12T06:49:37;82.83;;;28.83;;
5900;SDS011;2976;49.764;9.796;2023-02-12T06:52:02;71.70;;;26.23;;
5900;SDS011;2976;49.764;9.796;2023-02-12T06:54:28;90.70;;;29.47;;
5900;SDS011;2976;49.764;9.796;2023-02-12T06:56:53;62.90;;;24.33;;
5900;SDS011;2976;49.764;9.796;2023-02-12T06:59:19;62.80;;;27.50;;
5900;SDS011;2976;49.764;9.796;2023-02-12T07:01:45;67.13;;;27.83;;
5900;SDS011;2976;49.764;9.796;2023-02-12T07:04:10;77.47;;;29.87;;
5900;SDS011;2976;49.764;9.796;2023-02-12T07:06:36;83.80;;;30.43;;
5900;SDS011;2976;49.764;9.796;2023-02-12T07:09:02;85.10;;;32.77;;
5900;SDS011;2976;49.764;9.796;2023-02-12T07:11:30;87.93;;;32.20;;
5900;SDS011;2976;49.764;9.796;2023-02-12T07:13:58;95.90;;;33.53;;
5900;SDS011;2976;49.764;9.796;2023-02-12T07:16:26;85.53;;;33.10;;
5900;SDS011;2976;49.764;9.796;2023-02-12T07:18:52;80.20;;;32.40;;
5900;SDS011;2976;49.764;9.796;2023-02-12T07:21:18;78.60;;;32.57;;
5900;SDS011;2976;49.764;9.796;2023-02-12T07:23:48;80.17;;;31.47;;
5900;SDS011;2976;49.764;9.796;2023-02-12T07:26:14;86.63;;;31.60;;
5900;SDS011;2976;49.764;9.796;2023-02-12T07:28:41;83.07;;;32.03;;
5900;SDS011;2976;49.764;9.796;2023-02-12T07:31:08;88.73;;;32.03;;
5900;SDS011;2976;49.764;9.796;2023-02-12T07:33:35;93.07;;;32.50;;
5900;SDS011;2976;49.764;9.796;2023-02-12T07:36:02;95.20;;;31.93;;
5900;SDS011;2976;49.764;9.796;2023-02-12T07:38:29;83.33;;;31.00;;
5900;SDS011;2976;49.764;9.796;2023-02-12T07:40:54;56.13;;;25.43;;
5900;SDS011;2976;49.764;9.796;2023-02-12T07:43:22;46.90;;;20.73;;
5900;SDS011;2976;49.764;9.796;2023-02-12T07:45:48;47.10;;;22.07;;
5900;SDS011;2976;49.764;9.796;2023-02-12T07:48:14;41.97;;;21.00;;
5900;SDS011;2976;49.764;9.796;2023-02-12T07:50:39;40.87;;;18.57;;
5900;SDS011;2976;49.764;9.796;2023-02-12T07:53:05;51.13;;;21.17;;
5900;SDS011;2976;49.764;9.796;2023-02-12T07:55:30;50.60;;;22.63;;
5900;SDS011;2976;49.764;9.796;2023-02-12T07:57:56;51.67;;;22.00;;
5900;SDS011;2976;49.764;9.796;2023-02-12T08:00:21;51.67;;;23.87;;
5900;SDS011;2976;49.764;9.796;2023-02-12T08:02:51;59.73;;;25.77;;
5900;SDS011;2976;49.764;9.796;2023-02-12T08:05:17;67.47;;;25.70;;
5900;SDS011;2976;49.764;9.796;2023-02-12T08:07:43;58.07;;;24.27;;
5900;SDS011;2976;49.764;9.796;2023-02-12T08:10:08;50.50;;;24.57;;
5900;SDS011;2976;49.764;9.796;2023-02-12T08:12:34;63.07;;;26.70;;
5900;SDS011;2976;49.764;9.796;2023-02-12T08:14:59;44.07;;;22.17;;
5900;SDS011;2976;49.764;9.796;2023-02-12T08:17:25;44.93;;;20.40;;
5900;SDS011;2976;49.764;9.796;2023-02-12T08:19:50;44.10;;;20.43;;
5900;SDS011;2976;49.764;9.796;2023-02-12T08:22:16;42.30;;;21.50;;
5900;SDS011;2976;49.764;9.796;2023-02-12T08:24:42;49.03;;;23.07;;
5900;SDS011;2976;49.764;9.796;2023-02-12T08:27:08;55.57;;;24.43;;
5900;SDS011;2976;49.764;9.796;2023-02-12T08:29:33;47.90;;;22.00;;
5900;SDS011;2976;49.764;9.796;2023-02-12T08:32:00;46.63;;;20.30;;
5900;SDS011;2976;49.764;9.796;2023-02-12T08:34:27;47.60;;;23.70;;
5900;SDS011;2976;49.764;9.796;2023-02-12T08:36:55;48.97;;;22.10;;
5900;SDS011;2976;49.764;9.796;2023-02-12T08:39:21;56.37;;;24.60;;
5900;SDS011;2976;49.764;9.796;2023-02-12T08:41:49;65.13;;;26.23;;
5900;SDS011;2976;49.764;9.796;2023-02-12T08:44:15;50.67;;;24.10;;
5900;SDS011;2976;49.764;9.796;2023-02-12T08:46:42;58.43;;;25.60;;
5900;SDS011;2976;49.764;9.796;2023-02-12T08:49:12;51.67;;;26.13;;
5900;SDS011;2976;49.764;9.796;2023-02-12T08:51:40;59.87;;;25.93;;
5900;SDS011;2976;49.764;9.796;2023-02-12T08:54:12;47.77;;;22.23;;
5900;SDS011;2976;49.764;9.796;2023-02-12T08:56:39;43.73;;;20.90;;
5900;SDS011;2976;49.764;9.796;2023-02-12T08:59:06;48.43;;;21.17;;
5900;SDS011;2976;49.764;9.796;2023-02-12T09:01:33;44.77;;;22.90;;
5900;SDS011;2976;49.764;9.796;2023-02-12T09:04:02;56.43;;;24.13;;
5900;SDS011;2976;49.764;9.796;2023-02-12T09:06:30;41.63;;;20.43;;
5900;SDS011;2976;49.764;9.796;2023-02-12T09:08:57;34.73;;;17.83;;
5900;SDS011;2976;49.764;9.796;2023-02-12T09:11:24;36.20;;;19.10;;
5900;SDS011;2976;49.764;9.796;2023-02-12T09:13:55;37.27;;;18.80;;
5900;SDS011;2976;49.764;9.796;2023-02-12T09:16:23;38.40;;;18.80;;
5900;SDS011;2976;49.764;9.796;2023-02-12T09:18:48;40.27;;;18.10;;
5900;SDS011;2976;49.764;9.796;2023-02-12T09:21:14;34.10;;;17.00;;
5900;SDS011;2976;49.764;9.796;2023-02-12T09:23:41;39.13;;;20.43;;
5900;SDS011;2976;49.764;9.796;2023-02-12T09:26:12;40.73;;;19.80;;
5900;SDS011;2976;49.764;9.796;2023-02-12T09:28:41;33.17;;;17.87;;
5900;SDS011;2976;49.764;9.796;2023-02-12T09:31:08;36.30;;;18.70;;
5900;SDS011;2976;49.764;9.796;2023-02-12T09:33:35;37.90;;;20.73;;
5900;SDS011;2976;49.764;9.796;2023-02-12T09:36:02;40.70;;;20.03;;
5900;SDS011;2976;49.764;9.796;2023-02-12T09:38:29;47.63;;;23.53;;
5900;SDS011;2976;49.764;9.796;2023-02-12T09:44:03;44.33;;;22.20;;
5900;SDS011;2976;49.764;9.796;2023-02-12T09:46:52;50.43;;;22.10;;
5900;SDS011;2976;49.764;9.796;2023-02-12T09:52:29;42.13;;;21.60;;
5900;SDS011;2976;49.764;9.796;2023-02-12T09:54:55;40.70;;;21.07;;
5900;SDS011;2976;49.764;9.796;2023-02-12T09:57:31;50.80;;;22.13;;
5900;SDS011;2976;49.764;9.796;2023-02-12T10:02:36;48.03;;;22.03;;
5900;SDS011;2976;49.764;9.796;2023-02-12T10:05:04;47.77;;;22.83;;
5900;SDS011;2976;49.764;9.796;2023-02-12T10:13:53;45.93;;;20.83;;
5900;SDS011;2976;49.764;9.796;2023-02-12T10:18:53;54.57;;;22.57;;
5900;SDS011;2976;49.764;9.796;2023-02-12T10:24:42;46.03;;;21.50;;
5900;SDS011;2976;49.764;9.796;2023-02-12T10:27:30;44.33;;;22.30;;
5900;SDS011;2976;49.764;9.796;2023-02-12T10:30:23;36.60;;;19.10;;
5900;SDS011;2976;49.764;9.796;2023-02-12T10:33:06;46.53;;;21.37;;
5900;SDS011;2976;49.764;9.796;2023-02-12T10:35:39;41.07;;;20.70;;
5900;SDS011;2976;49.764;9.796;2023-02-12T10:38:26;34.37;;;19.80;;
5900;SDS011;2976;49.764;9.796;2023-02-12T10:40:55;39.77;;;20.77;;
5900;SDS011;2976;49.764;9.796;2023-02-12T10:43:22;39.87;;;20.80;;
5900;SDS011;2976;49.764;9.796;2023-02-12T10:45:48;42.10;;;23.13;;
5900;SDS011;2976;49.764;9.796;2023-02-12T10:48:21;48.37;;;22.97;;
5900;SDS011;2976;49.764;9.796;2023-02-12T10:53:33;43.50;;;21.77;;
5900;SDS011;2976;49.764;9.796;2023-02-12T11:01:26;42.90;;;18.10;;
5900;SDS011;2976;49.764;9.796;2023-02-12T11:03:54;37.60;;;17.43;;
5900;SDS011;2976;49.764;9.796;2023-02-12T11:06:24;36.87;;;18.63;;
5900;SDS011;2976;49.764;9.796;2023-02-12T11:08:54;43.20;;;19.60;;
5900;SDS011;2976;49.764;9.796;2023-02-12T11:11:29;37.70;;;20.50;;
5900;SDS011;2976;49.764;9.796;2023-02-12T11:14:15;40.50;;;18.80;;
5900;SDS011;2976;49.764;9.796;2023-02-12T11:16:52;35.13;;;18.10;;
5900;SDS011;2976;49.764;9.796;2023-02-12T11:19:29;37.50;;;20.20;;
5900;SDS011;2976;49.764;9.796;2023-02-12T11:22:09;35.50;;;17.63;;
5900;SDS011;2976;49.764;9.796;2023-02-12T11:24:38;31.70;;;17.70;;
5900;SDS011;2976;49.764;9.796;2023-02-12T11:27:25;32.50;;;18.07;;
5900;SDS011;2976;49.764;9.796;2023-02-12T11:32:34;37.13;;;18.40;;
5900;SDS011;2976;49.764;9.796;2023-02-12T11:35:05;34.70;;;17.40;;
5900;SDS011;2976;49.764;9.796;2023-02-12T11:37:39;32.97;;;18.57;;
5900;SDS011;2976;49.764;9.796;2023-02-12T11:40:19;32.30;;;17.17;;
5900;SDS011;2976;49.764;9.796;2023-02-12T11:42:48;29.93;;;15.97;;
5900;SDS011;2976;49.764;9.796;2023-02-12T11:45:17;33.20;;;17.00;;
5900;SDS011;2976;49.764;9.796;2023-02-12T11:47:45;27.63;;;16.73;;
5900;SDS011;2976;49.764;9.796;2023-02-12T11:50:17;30.70;;;16.33;;
5900;SDS011;2976;49.764;9.796;2023-02-12T11:52:48;33.23;;;18.60;;
5900;SDS011;2976;49.764;9.796;2023-02-12T11:55:23;32.40;;;17.87;;
5900;SDS011;2976;49.764;9.796;2023-02-12T11:57:52;27.30;;;14.37;;
5900;SDS011;2976;49.764;9.796;2023-02-12T12:00:28;27.83;;;14.10;;
5900;SDS011;2976;49.764;9.796;2023-02-12T12:03:10;25.67;;;14.30;;
5900;SDS011;2976;49.764;9.796;2023-02-12T12:05:52;23.87;;;14.13;;
5900;SDS011;2976;49.764;9.796;2023-02-12T12:08:28;20.53;;;12.20;;
5900;SDS011;2976;49.764;9.796;2023-02-12T12:11:06;18.23;;;12.87;;
5900;SDS011;2976;49.764;9.796;2023-02-12T12:16:44;21.00;;;12.03;;
5900;SDS011;2976;49.764;9.796;2023-02-12T12:19:48;22.90;;;12.27;;
5900;SDS011;2976;49.764;9.796;2023-02-12T12:33:10;24.50;;;12.77;;
5900;SDS011;2976;49.764;9.796;2023-02-12T12:35:46;26.23;;;12.30;;
5900;SDS011;2976;49.764;9.796;2023-02-12T12:38:38;21.90;;;11.67;;
5900;SDS011;2976;49.764;9.796;2023-02-12T12:44:24;19.47;;;11.07;;
5900;SDS011;2976;49.764;9.796;2023-02-12T12:49:47;21.77;;;11.30;;
5900;SDS011;2976;49.764;9.796;2023-02-12T12:52:39;22.10;;;11.60;;
5900;SDS011;2976;49.764;9.796;2023-02-12T12:55:21;23.17;;;12.80;;
5900;SDS011;2976;49.764;9.796;2023-02-12T13:03:50;19.50;;;11.33;;
5900;SDS011;2976;49.764;9.796;2023-02-12T13:06:51;19.70;;;11.10;;
5900;SDS011;2976;49.764;9.796;2023-02-12T13:09:29;19.77;;;11.70;;
5900;SDS011;2976;49.764;9.796;2023-02-12T13:12:08;16.37;;;9.00;;
5900;SDS011;2976;49.764;9.796;2023-02-12T13:15:00;16.10;;;9.87;;
5900;SDS011;2976;49.764;9.796;2023-02-12T13:17:54;13.70;;;8.03;;
5900;SDS011;2976;49.764;9.796;2023-02-12T13:23:36;11.10;;;6.73;;
5900;SDS011;2976;49.764;9.796;2023-02-12T13:26:36;15.03;;;6.80;;
5900;SDS011;2976;49.764;9.796;2023-02-12T13:29:25;10.30;;;5.40;;
5900;SDS011;2976;49.764;9.796;2023-02-12T13:31:54;8.03;;;5.90;;
5900;SDS011;2976;49.764;9.796;2023-02-12T13:34:50;6.73;;;4.70;;
5900;SDS011;2976;49.764;9.796;2023-02-12T13:37:41;6.97;;;4.23;;
5900;SDS011;2976;49.764;9.796;2023-02-12T13:40:13;6.80;;;3.97;;
5900;SDS011;2976;49.764;9.796;2023-02-12T13:45:18;7.73;;;6.47;;
5900;SDS011;2976;49.764;9.796;2023-02-12T13:48:18;11.43;;;6.50;;
5900;SDS011;2976;49.764;9.796;2023-02-12T13:56:31;16.93;;;9.60;;
5900;SDS011;2976;49.764;9.796;2023-02-12T13:59:26;11.33;;;7.90;;
5900;SDS011;2976;49.764;9.796;2023-02-12T14:01:59;19.30;;;10.77;;
5900;SDS011;2976;49.764;9.796;2023-02-12T14:04:27;19.10;;;10.93;;
5900;SDS011;2976;49.764;9.796;2023-02-12T14:06:57;17.27;;;9.87;;
5900;SDS011;2976;49.764;9.796;2023-02-12T14:09:38;18.33;;;10.03;;
5900;SDS011;2976;49.764;9.796;2023-02-12T14:12:07;16.33;;;9.53;;
5900;SDS011;2976;49.764;9.796;2023-02-12T14:14:38;15.73;;;9.10;;
5900;SDS011;2976;49.764;9.796;2023-02-12T14:27:45;18.67;;;9.73;;
5900;SDS011;2976;49.764;9.796;2023-02-12T14:37:54;18.23;;;8.87;;
5900;SDS011;2976;49.764;9.796;2023-02-12T14:43:01;17.13;;;9.73;;
5900;SDS011;2976;49.764;9.796;2023-02-12T14:45:48;12.40;;;8.10;;
5900;SDS011;2976;49.764;9.796;2023-02-12T14:48:37;17.13;;;9.17;;
5900;SDS011;2976;49.764;9.796;2023-02-12T14:51:29;15.13;;;8.70;;
5900;SDS011;2976;49.764;9.796;2023-02-12T14:54:00;14.83;;;7.37;;
5900;SDS011;2976;49.764;9.796;2023-02-12T14:56:28;14.70;;;8.20;;
5900;SDS011;2976;49.764;9.796;2023-02-12T14:59:04;11.97;;;7.10;;
5900;SDS011;2976;49.764;9.796;2023-02-12T15:01:35;11.83;;;7.13;;
5900;SDS011;2976;49.764;9.796;2023-02-12T15:04:11;13.17;;;6.97;;
5900;SDS011;2976;49.764;9.796;2023-02-12T15:06:49;13.47;;;7.80;;
5900;SDS011;2976;49.764;9.796;2023-02-12T15:09:28;11.47;;;7.40;;
5900;SDS011;2976;49.764;9.796;2023-02-12T15:12:04;10.90;;;7.00;;
5900;SDS011;2976;49.764;9.796;2023-02-12T15:14:38;11.00;;;7.40;;
5900;SDS011;2976;49.764;9.796;2023-02-12T15:17:11;14.03;;;9.07;;
5900;SDS011;2976;49.764;9.796;2023-02-12T15:19:56;10.47;;;6.50;;
5900;SDS011;2976;49.764;9.796;2023-02-12T15:22:30;11.90;;;7.57;;
5900;SDS011;2976;49.764;9.796;2023-02-12T15:27:51;10.60;;;6.40;;
5900;SDS011;2976;49.764;9.796;2023-02-12T15:30:21;11.20;;;7.50;;
5900;SDS011;2976;49.764;9.796;2023-02-12T15:32:56;11.33;;;6.97;;
5900;SDS011;2976;49.764;9.796;2023-02-12T15:35:28;12.87;;;8.00;;
5900;SDS011;2976;49.764;9.796;2023-02-12T15:37:56;11.00;;;7.03;;
5900;SDS011;2976;49.764;9.796;2023-02-12T15:40:25;8.37;;;6.00;;
5900;SDS011;2976;49.764;9.796;2023-02-12T15:42:53;7.43;;;5.60;;
5900;SDS011;2976;49.764;9.796;2023-02-12T15:47:55;7.00;;;5.47;;
5900;SDS011;2976;49.764;9.796;2023-02-12T15:50:21;6.60;;;4.70;;
5900;SDS011;2976;49.764;9.796;2023-02-12T15:52:47;7.70;;;5.73;;
5900;SDS011;2976;49.764;9.796;2023-02-12T15:55:20;14.73;;;8.20;;
5900;SDS011;2976;49.764;9.796;2023-02-12T15:57:57;10.40;;;7.30;;
5900;SDS011;2976;49.764;9.796;2023-02-12T16:00:28;26.50;;;12.03;;
5900;SDS011;2976;49.764;9.796;2023-02-12T16:03:27;14.50;;;7.63;;
5900;SDS011;2976;49.764;9.796;2023-02-12T16:05:56;14.47;;;8.87;;
5900;SDS011;2976;49.764;9.796;2023-02-12T16:08:33;15.20;;;8.57;;
5900;SDS011;2976;49.764;9.796;2023-02-12T16:11:00;12.77;;;8.23;;
5900;SDS011;2976;49.764;9.796;2023-02-12T16:13:37;14.50;;;10.10;;
5900;SDS011;2976;49.764;9.796;2023-02-12T16:16:17;14.40;;;9.77;;
5900;SDS011;2976;49.764;9.796;2023-02-12T16:24:26;20.03;;;11.57;;
5900;SDS011;2976;49.764;9.796;2023-02-12T16:26:57;20.87;;;12.37;;
5900;SDS011;2976;49.764;9.796;2023-02-12T16:29:44;20.23;;;11.73;;
5900;SDS011;2976;49.764;9.796;2023-02-12T16:48:01;14.77;;;9.13;;
5900;SDS011;2976;49.764;9.796;2023-02-12T16:50:46;16.80;;;10.37;;
5900;SDS011;2976;49.764;9.796;2023-02-12T16:53:35;21.40;;;12.40;;
5900;SDS011;2976;49.764;9.796;2023-02-12T16:56:24;23.07;;;12.33;;
5900;SDS011;2976;49.764;9.796;2023-02-12T16:58:53;27.10;;;12.97;;
5900;SDS011;2976;49.764;9.796;2023-02-12T17:01:25;20.90;;;11.60;;
5900;SDS011;2976;49.764;9.796;2023-02-12T17:04:03;21.00;;;12.70;;
5900;SDS011;2976;49.764;9.796;2023-02-12T17:06:30;22.53;;;12.10;;
5900;SDS011;2976;49.764;9.796;2023-02-12T17:08:57;19.20;;;10.60;;
5900;SDS011;2976;49.764;9.796;2023-02-12T17:11:28;19.57;;;11.27;;
5900;SDS011;2976;49.764;9.796;2023-02-12T17:13:54;21.30;;;11.00;;
5900;SDS011;2976;49.764;9.796;2023-02-12T17:16:20;25.03;;;12.63;;
5900;SDS011;2976;49.764;9.796;2023-02-12T17:18:50;23.70;;;12.80;;
5900;SDS011;2976;49.764;9.796;2023-02-12T17:21:37;26.77;;;12.53;;
5900;SDS011;2976;49.764;9.796;2023-02-12T17:24:13;25.47;;;12.20;;
5900;SDS011;2976;49.764;9.796;2023-02-12T17:26:50;19.00;;;9.77;;
5900;SDS011;2976;49.764;9.796;2023-02-12T17:29:17;19.90;;;10.90;;
5900;SDS011;2976;49.764;9.796;2023-02-12T17:31:43;18.23;;;11.70;;
5900;SDS011;2976;49.764;9.796;2023-02-12T17:34:10;18.97;;;11.03;;
5900;SDS011;2976;49.764;9.796;2023-02-12T17:36:39;22.47;;;12.23;;
5900;SDS011;2976;49.764;9.796;2023-02-12T17:39:05;17.87;;;11.20;;
5900;SDS011;2976;49.764;9.796;2023-02-12T17:41:33;20.90;;;9.97;;
5900;SDS011;2976;49.764;9.796;2023-02-12T17:43:58;28.97;;;15.00;;
5900;SDS011;2976;49.764;9.796;2023-02-12T17:46:27;45.70;;;19.93;;
5900;SDS011;2976;49.764;9.796;2023-02-12T17:48:56;20.77;;;13.03;;
5900;SDS011;2976;49.764;9.796;2023-02-12T17:51:25;21.20;;;12.50;;
5900;SDS011;2976;49.764;9.796;2023-02-12T17:53:53;22.27;;;11.67;;
5900;SDS011;2976;49.764;9.796;2023-02-12T17:56:20;22.57;;;12.60;;
5900;SDS011;2976;49.764;9.796;2023-02-12T17:58:46;25.27;;;12.67;;